Aérodrome :
LOGIN :

S'inscrire | Disclaimer

   EN    FR    IT 

 










Légende :    VFR   VFR Marginal   IFR   IFR Intensif   IFR Très Intensif
Visi : 
Plafond : 
>= 8 km
>= 3000ft
5 à 8 km
1000 à 3000 ft
1500m à 5 km
500 à 1000 ft
800 à 1500m
200 à 500 ft
< 800m
< 200 ft
Symboles :   Orages  Brouillard  Fortes neiges  Fortes précipitations  Vent > 20 kt
SIGMETs :   Divers  Orages  Givrage  Turbulence  Onde Orograph.  Cendres Volcan.







- Altitude de l'aérodrome : 461 ft
- Code IATA : WIE


ETOU - Wiesbaden Army

DERNIER METAR :
  • 231956Z AUTO 20006KT 9999 OVC027 07/04 A3023 RMK AO2 SLP244 T00680041 $

METARs EXPIRÉS :
  • 231856Z AUTO 20007KT 9999 OVC029 07/04 A3023 RMK AO2 RAB14E26RAB41E52 OVC V BKN CIG 028 RWY07 SLP244 P0000 T00660044 $
  • 231841Z AUTO 19008KT 9999 -RA FEW014 OVC027 07/04 A3023 RMK AO2 RAB14E26RAB41 OVC V BKN SLP244 $
  • 231826Z AUTO 21007KT 9999 FEW014 BKN027 OVC034 07/04 A3024 RMK AO2 RAB14E26 CIG 027V032 SLP247 $
  • 231814Z AUTO 21007KT 9999 -RA FEW012 BKN033 OVC050 08/04 A3024 RMK AO2 RAB14 SLP246 $
  • 231806Z AUTO 21008KT 9999 BKN032 OVC050 08/04 A3024 RMK AO2 SLP246 $
  • 231756Z AUTO 22011KT 9999 OVC029 08/04 A3024 RMK AO2 SLP246 60000 T00750041 10082 20072 57003 $
  • 231736Z AUTO 20007KT 9999 OVC029 07/04 A3024 RMK AO2 CIG 028 RWY07 SLP247 $

TAF TAF ETOU
Valide du 23 à 19h jusqu'au 25 à 01h UTC


231901Z 2319/2501 21012KT 9000 -SHRA SCT015 BKN025 610702 QNH3018INS
BECMG 2323/2324 21009KT 9999 NSW BKN015 QNH3011INS
BECMG 2410/2411 21012KT 9000 -SHRA OVC010 QNH3000INS
TEMPO 2410/2418 22012G20KT
BECMG 2417/2418 22015G25KT 8000 -SHRA OVC015 QNH2997INS TX09/2415Z TN06/2319Z
Pas de NOTAMs connus pour ce terrain.



MET'MAP, la Météo Aéronautique d'un coup d'oeil ! - Copyright ORBIFLY Décembre 2007 - Disclaimer

ORBIFLY MET'MAP TEAM :

Programmation & Développement : Alexandra Zaïnal
Conception & Développement : Baudouin d'Aumeries
Co-Programmation & Développement : Marc-Olivier Méhu
Soutien technique & logistique : Manuel Goepfert

Contact : metmap@orbifly.com




SOURCES & CREDITS :

   NOAA